createdAt,value
2023-06-18T00:04:33.904Z,77.28
2023-06-18T00:09:36.709Z,77.36
2023-06-18T00:14:41.374Z,77.38
2023-06-18T00:19:44.174Z,76.34
2023-06-18T00:24:46.956Z,76.04
2023-06-18T00:29:51.104Z,76.60
2023-06-18T00:34:55.857Z,76.52
2023-06-18T00:39:58.622Z,77.10
2023-06-18T00:45:04.077Z,77.11
2023-06-18T00:50:07.799Z,77.28
2023-06-18T00:55:10.974Z,77.64
2023-06-18T01:00:15.712Z,77.88
2023-06-18T01:05:18.825Z,78.08
2023-06-18T01:10:22.986Z,78.23
2023-06-18T01:15:30.732Z,77.58
2023-06-18T01:20:33.816Z,77.41
2023-06-18T01:25:37.912Z,78.15
2023-06-18T01:30:42.197Z,79.34
2023-06-18T01:35:45.055Z,80.32
2023-06-18T01:40:50.157Z,80.43
2023-06-18T01:45:58.367Z,80.04
2023-06-18T01:51:01.731Z,79.20
2023-06-18T01:56:04.890Z,80.62
2023-06-18T02:01:10.850Z,79.74
2023-06-18T02:06:13.823Z,79.45
2023-06-18T02:11:18.390Z,81.32
2023-06-18T02:16:22.668Z,80.27
2023-06-18T02:21:27.812Z,79.31
2023-06-18T02:26:31.749Z,79.33
2023-06-18T02:31:36.065Z,79.42
2023-06-18T02:36:39.937Z,79.27
2023-06-18T02:41:46.542Z,80.20
2023-06-18T02:46:50.901Z,80.06
2023-06-18T02:51:54.695Z,79.49
2023-06-18T02:56:57.633Z,79.69
2023-06-18T03:02:02.102Z,80.17
2023-06-18T03:07:05.438Z,80.49
2023-06-18T03:12:08.976Z,79.91
2023-06-18T03:17:13.197Z,79.41
2023-06-18T03:22:16.134Z,80.15
2023-06-18T03:27:19.092Z,80.34
2023-06-18T03:32:23.333Z,80.57
2023-06-18T03:37:26.198Z,80.84
2023-06-18T03:42:29.635Z,81.10
2023-06-18T03:47:34.052Z,81.16
2023-06-18T03:52:37.053Z,80.97
2023-06-18T03:57:40.386Z,80.70
2023-06-18T04:02:46.887Z,80.45
2023-06-18T04:07:56.328Z,79.78
2023-06-18T04:12:59.499Z,80.17
2023-06-18T04:18:04.031Z,79.85
2023-06-18T04:23:07.437Z,79.71
2023-06-18T04:28:10.366Z,79.60
2023-06-18T04:33:14.649Z,79.72
2023-06-18T04:38:18.853Z,78.57
2023-06-18T04:43:21.870Z,78.83
2023-06-18T04:48:26.062Z,78.37
2023-06-18T04:53:30.419Z,77.76
2023-06-18T04:58:37.811Z,77.10
2023-06-18T05:03:43.883Z,76.80
2023-06-18T05:08:47.954Z,76.60
2023-06-18T05:13:52.138Z,75.89
2023-06-18T05:18:56.469Z,75.68
2023-06-18T05:23:59.379Z,75.54
2023-06-18T05:29:02.621Z,75.68
2023-06-18T05:34:07.349Z,75.62
2023-06-18T05:39:11.300Z,75.51
2023-06-18T05:44:14.655Z,75.14
2023-06-18T05:49:18.940Z,75.13
2023-06-18T05:54:23.060Z,74.61
2023-06-18T05:59:25.902Z,74.16
2023-06-18T06:04:37.237Z,74.49
2023-06-18T06:09:41.749Z,74.41
2023-06-18T06:14:44.709Z,74.15
2023-06-18T06:19:48.971Z,74.54
2023-06-18T06:24:51.872Z,74.96
2023-06-18T06:29:54.741Z,74.77
2023-06-18T06:34:59.002Z,74.99
2023-06-18T06:40:01.907Z,73.36
2023-06-18T06:45:08.234Z,72.75
2023-06-18T06:50:26.142Z,72.21
2023-06-18T06:55:38.289Z,71.51
2023-06-18T07:00:41.422Z,71.42
2023-06-18T07:05:46.907Z,70.63
2023-06-18T07:10:49.669Z,70.83
2023-06-18T07:15:52.453Z,70.31
2023-06-18T07:20:56.719Z,68.97
2023-06-18T07:25:59.502Z,68.95
2023-06-18T07:31:02.645Z,68.35
2023-06-18T07:36:07.198Z,69.29
2023-06-18T07:41:09.988Z,68.00
2023-06-18T07:46:12.914Z,66.47
2023-06-18T07:51:17.101Z,64.99
2023-06-18T07:56:20.021Z,64.23
2023-06-18T08:01:22.905Z,63.44
2023-06-18T08:06:27.082Z,62.56
2023-06-18T08:11:29.885Z,62.82
2023-06-18T08:16:32.749Z,63.49
2023-06-18T08:21:36.946Z,59.79
2023-06-18T08:26:39.815Z,57.21
2023-06-18T08:31:43.796Z,59.69
2023-06-18T08:36:48.641Z,58.85
2023-06-18T08:41:52.039Z,58.05
2023-06-18T08:47:01.145Z,57.61
2023-06-18T08:52:10.975Z,58.59
2023-06-18T08:57:17.902Z,57.02
2023-06-18T09:02:22.585Z,56.71
2023-06-18T09:07:27.134Z,54.24
2023-06-18T09:12:30.048Z,54.03
2023-06-18T09:17:33.715Z,51.01
2023-06-18T09:22:47.259Z,52.55
2023-06-18T09:27:50.458Z,50.60
2023-06-18T09:32:54.909Z,50.03
2023-06-18T09:38:09.845Z,50.08
2023-06-18T09:43:12.808Z,50.74
2023-06-18T09:48:16.040Z,48.28
2023-06-18T09:53:21.326Z,47.65
2023-06-18T09:58:41.101Z,47.34
2023-06-18T10:03:44.609Z,46.86
2023-06-18T10:08:50.372Z,44.47
2023-06-18T10:13:57.396Z,44.14
2023-06-18T10:19:04.847Z,44.02
2023-06-18T10:24:14.182Z,44.68
2023-06-18T10:29:17.413Z,45.69
2023-06-18T10:34:20.278Z,43.98
2023-06-18T10:39:25.825Z,43.11
2023-06-18T10:44:35.682Z,45.30
2023-06-18T10:49:39.728Z,41.84
2023-06-18T10:54:45.990Z,41.12
2023-06-18T10:59:50.853Z,41.14
2023-06-18T11:04:54.318Z,41.49
2023-06-18T11:09:59.517Z,41.77
2023-06-18T11:15:20.141Z,40.78
2023-06-18T11:20:25.389Z,38.33
2023-06-18T11:25:30.785Z,39.00
2023-06-18T11:30:34.124Z,37.76
2023-06-18T11:35:37.020Z,38.30
2023-06-18T11:40:50.484Z,36.26
2023-06-18T11:45:55.101Z,37.11
2023-06-18T11:50:58.227Z,36.90
2023-06-18T11:56:02.380Z,34.71
2023-06-18T12:01:05.184Z,35.50
2023-06-18T12:06:15.725Z,34.37
2023-06-18T12:11:30.356Z,34.25
2023-06-18T12:16:36.544Z,34.67
2023-06-18T12:21:39.747Z,34.87
2023-06-18T12:26:44.049Z,33.94
2023-06-18T12:32:02.669Z,33.23
2023-06-18T12:37:06.012Z,32.14
2023-06-18T12:42:13.928Z,32.16
2023-06-18T12:47:19.172Z,31.04
2023-06-18T12:52:23.065Z,30.94
2023-06-18T12:57:29.790Z,29.62
2023-06-18T13:02:32.750Z,29.70
2023-06-18T13:07:35.642Z,28.85
2023-06-18T13:12:39.860Z,29.94
2023-06-18T13:17:44.095Z,29.45
2023-06-18T13:22:47.256Z,30.30
2023-06-18T13:27:51.735Z,28.13
2023-06-18T13:32:56.499Z,28.09
2023-06-18T13:37:59.500Z,26.94
2023-06-18T13:43:04.697Z,27.75
2023-06-18T13:48:07.922Z,27.76
2023-06-18T13:53:11.531Z,28.09
2023-06-18T13:58:16.971Z,27.39
2023-06-18T14:03:19.946Z,27.86
2023-06-18T14:08:22.867Z,26.05
2023-06-18T14:13:26.986Z,26.63
2023-06-18T14:18:31.096Z,26.35
2023-06-18T14:23:34.635Z,26.91
2023-06-18T14:28:39.813Z,24.21
2023-06-18T14:33:44.387Z,18.34
2023-06-18T14:38:49.201Z,11.76
2023-06-18T14:43:53.328Z,8.66
2023-06-18T14:48:56.176Z,7.12
2023-06-18T14:54:04.650Z,6.32
2023-06-18T14:59:09.229Z,5.93
2023-06-18T15:04:22.375Z,5.56
2023-06-18T15:09:25.473Z,6.06
2023-06-18T15:14:29.653Z,6.10
2023-06-18T15:19:33.072Z,6.20
2023-06-18T15:24:36.357Z,7.09
2023-06-18T15:29:40.686Z,6.04
2023-06-18T15:34:43.464Z,5.69
2023-06-18T15:39:48.002Z,5.52
2023-06-18T15:44:52.402Z,5.96
2023-06-18T15:49:55.451Z,5.59
2023-06-18T15:54:58.307Z,6.71
2023-06-18T16:00:02.913Z,6.23
2023-06-18T16:05:11.658Z,7.31
2023-06-18T16:10:14.512Z,6.23
2023-06-18T16:15:18.881Z,6.08
2023-06-18T16:20:21.825Z,9.97
2023-06-18T16:25:24.766Z,12.83
2023-06-18T16:30:29.427Z,10.42
2023-06-18T16:35:32.410Z,13.36
2023-06-18T16:40:35.882Z,16.35
2023-06-18T16:45:41.640Z,18.72
2023-06-18T16:50:44.527Z,20.58
2023-06-18T16:55:47.319Z,20.52
2023-06-18T17:00:51.709Z,19.86
2023-06-18T17:05:54.969Z,21.27
2023-06-18T17:10:57.880Z,22.27
2023-06-18T17:16:02.283Z,22.89
2023-06-18T17:21:07.659Z,24.02
2023-06-18T17:26:11.607Z,26.04
2023-06-18T17:31:15.831Z,24.50
2023-06-18T17:36:19.509Z,25.86
2023-06-18T17:41:22.399Z,26.73
2023-06-18T17:46:26.721Z,27.38
2023-06-18T17:51:29.942Z,26.89
2023-06-18T17:56:33.926Z,28.10
2023-06-18T18:01:38.504Z,26.91
2023-06-18T18:06:41.431Z,26.38
2023-06-18T18:11:44.727Z,26.26
2023-06-18T18:16:49.272Z,28.64
2023-06-18T18:21:52.257Z,28.82
2023-06-18T18:26:55.086Z,30.40
2023-06-18T18:32:00.690Z,32.14
2023-06-18T18:37:04.793Z,32.21
2023-06-18T18:42:15.047Z,32.28
2023-06-18T18:47:26.051Z,33.45
2023-06-18T18:52:29.408Z,34.54
2023-06-18T18:57:32.352Z,35.64
2023-06-18T19:02:36.704Z,36.21
2023-06-18T19:07:39.621Z,37.46
2023-06-18T19:12:43.765Z,38.72
2023-06-18T19:17:48.139Z,40.00
2023-06-18T19:22:51.001Z,41.14
2023-06-18T19:27:53.891Z,42.01
2023-06-18T19:32:59.222Z,43.42
2023-06-18T19:38:02.126Z,43.50
2023-06-18T19:43:05.413Z,45.18
2023-06-18T19:48:09.738Z,44.88
2023-06-18T19:53:12.559Z,47.33
2023-06-18T19:58:15.337Z,47.73
2023-06-18T20:03:23.975Z,48.22
2023-06-18T20:08:29.600Z,49.03
2023-06-18T20:13:32.415Z,49.40
2023-06-18T20:18:36.555Z,49.72
2023-06-18T20:23:39.344Z,50.30
2023-06-18T20:28:42.161Z,51.04
2023-06-18T20:33:46.326Z,50.64
2023-06-18T20:38:49.099Z,51.37
2023-06-18T20:43:51.889Z,51.20
2023-06-18T20:48:55.998Z,51.89
2023-06-18T20:54:00.080Z,52.05
2023-06-18T20:59:02.986Z,52.06
2023-06-18T21:04:07.278Z,52.52
2023-06-18T21:09:10.054Z,53.15
2023-06-18T21:14:12.982Z,52.11
2023-06-18T21:19:17.255Z,52.87
2023-06-18T21:24:20.382Z,53.35
2023-06-18T21:29:23.302Z,53.69
2023-06-18T21:34:27.732Z,54.62
2023-06-18T21:39:30.559Z,54.91
2023-06-18T21:44:33.492Z,55.81
2023-06-18T21:49:37.628Z,55.72
2023-06-18T21:54:40.434Z,55.10
2023-06-18T21:59:43.221Z,55.23
2023-06-18T22:04:47.438Z,55.46
2023-06-18T22:09:50.181Z,55.88
2023-06-18T22:14:53.501Z,55.85
2023-06-18T22:19:57.607Z,56.33
2023-06-18T22:25:00.344Z,57.08
2023-06-18T22:30:03.138Z,57.46
2023-06-18T22:35:08.974Z,57.41
2023-06-18T22:40:12.728Z,56.97
2023-06-18T22:45:15.512Z,57.33
2023-06-18T22:50:19.687Z,57.43
2023-06-18T22:55:22.452Z,58.18
2023-06-18T23:00:25.293Z,58.69
2023-06-18T23:05:29.643Z,59.36
2023-06-18T23:10:32.362Z,59.46
2023-06-18T23:15:35.164Z,59.37
2023-06-18T23:20:39.510Z,59.51
2023-06-18T23:25:42.297Z,59.60
2023-06-18T23:30:47.511Z,59.91
2023-06-18T23:35:52.551Z,60.17
2023-06-18T23:40:55.346Z,61.07
2023-06-18T23:45:58.186Z,61.50
2023-06-18T23:51:02.405Z,61.20
2023-06-18T23:56:05.651Z,61.30
